sensor_id;sensor_type;location;lat;lon;timestamp;pressure;altitude;pressure_sealevel;temperature;humidity
62057;BME280;48016;50.284;18.860;2022-11-25T00:03:38;98091.79;;;2.13;86.03
62057;BME280;48016;50.284;18.860;2022-11-25T00:08:35;98091.66;;;2.17;86.16
62057;BME280;48016;50.284;18.860;2022-11-25T00:11:03;98093.30;;;2.21;86.36
62057;BME280;48016;50.284;18.860;2022-11-25T00:13:31;98094.94;;;2.23;86.33
62057;BME280;48016;50.284;18.860;2022-11-25T00:16:06;98095.17;;;2.25;86.42
62057;BME280;48016;50.284;18.860;2022-11-25T00:18:33;98098.42;;;2.27;86.38
62057;BME280;48016;50.284;18.860;2022-11-25T00:21:10;98104.45;;;2.28;86.26
62057;BME280;48016;50.284;18.860;2022-11-25T00:23:37;98104.63;;;2.30;86.15
62057;BME280;48016;50.284;18.860;2022-11-25T00:26:09;98102.56;;;2.31;86.20
62057;BME280;48016;50.284;18.860;2022-11-25T00:28:36;98105.85;;;2.30;86.17
62057;BME280;48016;50.284;18.860;2022-11-25T00:33:38;98102.13;;;2.31;86.21
62057;BME280;48016;50.284;18.860;2022-11-25T00:36:06;98106.55;;;2.33;86.26
62057;BME280;48016;50.284;18.860;2022-11-25T00:38:39;98106.13;;;2.36;86.32
62057;BME280;48016;50.284;18.860;2022-11-25T00:41:06;98107.00;;;2.34;86.38
62057;BME280;48016;50.284;18.860;2022-11-25T00:43:51;98112.98;;;2.34;86.55
62057;BME280;48016;50.284;18.860;2022-11-25T00:46:36;98114.73;;;2.32;86.48
62057;BME280;48016;50.284;18.860;2022-11-25T00:49:02;98116.44;;;2.31;86.38
62057;BME280;48016;50.284;18.860;2022-11-25T00:51:29;98123.67;;;2.28;86.33
62057;BME280;48016;50.284;18.860;2022-11-25T00:53:55;98120.26;;;2.27;86.18
62057;BME280;48016;50.284;18.860;2022-11-25T00:56:22;98123.33;;;2.28;86.26
62057;BME280;48016;50.284;18.860;2022-11-25T00:58:48;98123.98;;;2.30;86.31
62057;BME280;48016;50.284;18.860;2022-11-25T01:01:15;98121.73;;;2.31;86.47
62057;BME280;48016;50.284;18.860;2022-11-25T01:03:41;98122.97;;;2.32;86.51
62057;BME280;48016;50.284;18.860;2022-11-25T01:06:09;98126.05;;;2.35;86.80
62057;BME280;48016;50.284;18.860;2022-11-25T01:08:37;98124.56;;;2.39;86.74
62057;BME280;48016;50.284;18.860;2022-11-25T01:11:09;98125.05;;;2.39;86.62
62057;BME280;48016;50.284;18.860;2022-11-25T01:13:36;98128.95;;;2.38;86.50
62057;BME280;48016;50.284;18.860;2022-11-25T01:16:04;98129.52;;;2.36;86.61
62057;BME280;48016;50.284;18.860;2022-11-25T01:18:31;98130.34;;;2.38;86.56
62057;BME280;48016;50.284;18.860;2022-11-25T01:21:08;98128.13;;;2.39;86.47
62057;BME280;48016;50.284;18.860;2022-11-25T01:23:35;98124.84;;;2.42;86.55
62057;BME280;48016;50.284;18.860;2022-11-25T01:26:09;98128.29;;;2.47;86.69
62057;BME280;48016;50.284;18.860;2022-11-25T01:28:36;98125.45;;;2.51;86.59
62057;BME280;48016;50.284;18.860;2022-11-25T01:31:11;98121.83;;;2.51;86.72
62057;BME280;48016;50.284;18.860;2022-11-25T01:33:40;98122.12;;;2.50;86.92
62057;BME280;48016;50.284;18.860;2022-11-25T01:36:10;98118.55;;;2.50;86.96
62057;BME280;48016;50.284;18.860;2022-11-25T01:38:38;98118.09;;;2.51;86.79
62057;BME280;48016;50.284;18.860;2022-11-25T01:41:06;98121.05;;;2.53;86.98
62057;BME280;48016;50.284;18.860;2022-11-25T01:43:33;98123.84;;;2.56;86.78
62057;BME280;48016;50.284;18.860;2022-11-25T01:46:18;98119.44;;;2.61;86.65
62057;BME280;48016;50.284;18.860;2022-11-25T01:49:01;98118.55;;;2.63;86.63
62057;BME280;48016;50.284;18.860;2022-11-25T01:51:40;98121.11;;;2.65;86.74
62057;BME280;48016;50.284;18.860;2022-11-25T01:54:10;98121.69;;;2.69;86.88
62057;BME280;48016;50.284;18.860;2022-11-25T01:56:47;98120.04;;;2.72;86.88
62057;BME280;48016;50.284;18.860;2022-11-25T01:59:15;98120.84;;;2.77;86.98
62057;BME280;48016;50.284;18.860;2022-11-25T02:01:42;98124.73;;;2.77;86.79
62057;BME280;48016;50.284;18.860;2022-11-25T02:04:09;98123.23;;;2.75;86.74
62057;BME280;48016;50.284;18.860;2022-11-25T02:06:44;98125.04;;;2.73;86.71
62057;BME280;48016;50.284;18.860;2022-11-25T02:09:13;98128.53;;;2.73;86.71
62057;BME280;48016;50.284;18.860;2022-11-25T02:11:41;98127.92;;;2.69;86.59
62057;BME280;48016;50.284;18.860;2022-11-25T02:14:11;98129.16;;;2.66;86.63
62057;BME280;48016;50.284;18.860;2022-11-25T02:16:39;98130.55;;;2.65;86.68
62057;BME280;48016;50.284;18.860;2022-11-25T02:19:10;98127.69;;;2.67;86.71
62057;BME280;48016;50.284;18.860;2022-11-25T02:21:50;98126.44;;;2.68;86.72
62057;BME280;48016;50.284;18.860;2022-11-25T02:24:26;98126.62;;;2.69;86.88
62057;BME280;48016;50.284;18.860;2022-11-25T02:26:55;98123.81;;;2.70;86.87
62057;BME280;48016;50.284;18.860;2022-11-25T02:29:22;98125.98;;;2.73;86.80
62057;BME280;48016;50.284;18.860;2022-11-25T02:31:49;98130.01;;;2.75;86.90
62057;BME280;48016;50.284;18.860;2022-11-25T02:34:16;98129.17;;;2.78;86.91
62057;BME280;48016;50.284;18.860;2022-11-25T02:36:43;98129.59;;;2.81;86.80
62057;BME280;48016;50.284;18.860;2022-11-25T02:39:10;98131.30;;;2.84;86.78
62057;BME280;48016;50.284;18.860;2022-11-25T02:41:44;98131.46;;;2.85;86.76
62057;BME280;48016;50.284;18.860;2022-11-25T02:44:13;98134.70;;;2.85;86.77
62057;BME280;48016;50.284;18.860;2022-11-25T02:46:39;98136.39;;;2.84;86.76
62057;BME280;48016;50.284;18.860;2022-11-25T02:49:06;98138.25;;;2.84;86.77
62057;BME280;48016;50.284;18.860;2022-11-25T02:51:33;98140.14;;;2.83;86.86
62057;BME280;48016;50.284;18.860;2022-11-25T02:54:00;98137.29;;;2.83;86.95
62057;BME280;48016;50.284;18.860;2022-11-25T02:56:29;98139.48;;;2.84;86.92
62057;BME280;48016;50.284;18.860;2022-11-25T02:58:56;98144.14;;;2.86;86.96
62057;BME280;48016;50.284;18.860;2022-11-25T03:01:23;98141.81;;;2.86;87.01
62057;BME280;48016;50.284;18.860;2022-11-25T03:03:50;98140.38;;;2.86;87.06
62057;BME280;48016;50.284;18.860;2022-11-25T03:06:16;98140.50;;;2.87;87.02
62057;BME280;48016;50.284;18.860;2022-11-25T03:08:43;98140.90;;;2.88;87.05
62057;BME280;48016;50.284;18.860;2022-11-25T03:11:10;98142.66;;;2.89;87.16
62057;BME280;48016;50.284;18.860;2022-11-25T03:13:37;98143.58;;;2.90;87.16
62057;BME280;48016;50.284;18.860;2022-11-25T03:16:03;98143.56;;;2.91;87.16
62057;BME280;48016;50.284;18.860;2022-11-25T03:18:30;98140.89;;;2.93;87.12
62057;BME280;48016;50.284;18.860;2022-11-25T03:20:57;98142.66;;;2.92;86.97
62057;BME280;48016;50.284;18.860;2022-11-25T03:23:24;98141.60;;;2.90;87.05
62057;BME280;48016;50.284;18.860;2022-11-25T03:25:51;98146.36;;;2.89;87.23
62057;BME280;48016;50.284;18.860;2022-11-25T03:28:17;98150.09;;;2.92;87.31
62057;BME280;48016;50.284;18.860;2022-11-25T03:30:44;98149.86;;;2.95;87.27
62057;BME280;48016;50.284;18.860;2022-11-25T03:33:10;98152.95;;;2.97;87.25
62057;BME280;48016;50.284;18.860;2022-11-25T03:35:37;98156.70;;;2.98;87.16
62057;BME280;48016;50.284;18.860;2022-11-25T03:38:03;98156.63;;;2.98;87.04
62057;BME280;48016;50.284;18.860;2022-11-25T03:40:30;98161.27;;;2.98;87.24
62057;BME280;48016;50.284;18.860;2022-11-25T03:42:56;98161.54;;;2.99;87.14
62057;BME280;48016;50.284;18.860;2022-11-25T03:45:23;98164.34;;;3.01;87.35
62057;BME280;48016;50.284;18.860;2022-11-25T03:47:50;98166.45;;;3.05;87.26
62057;BME280;48016;50.284;18.860;2022-11-25T03:50:16;98167.80;;;3.08;87.24
62057;BME280;48016;50.284;18.860;2022-11-25T03:52:43;98164.80;;;3.07;87.09
62057;BME280;48016;50.284;18.860;2022-11-25T03:55:10;98164.89;;;3.08;87.07
62057;BME280;48016;50.284;18.860;2022-11-25T03:57:38;98165.61;;;3.07;86.94
62057;BME280;48016;50.284;18.860;2022-11-25T04:00:05;98164.48;;;3.08;87.10
62057;BME280;48016;50.284;18.860;2022-11-25T04:02:32;98164.39;;;3.07;87.13
62057;BME280;48016;50.284;18.860;2022-11-25T04:04:59;98163.05;;;3.04;87.13
62057;BME280;48016;50.284;18.860;2022-11-25T04:07:25;98165.19;;;3.04;87.19
62057;BME280;48016;50.284;18.860;2022-11-25T04:09:52;98163.83;;;3.05;87.12
62057;BME280;48016;50.284;18.860;2022-11-25T04:12:18;98168.33;;;3.08;87.27
62057;BME280;48016;50.284;18.860;2022-11-25T04:15:04;98168.33;;;3.09;87.18
62057;BME280;48016;50.284;18.860;2022-11-25T04:17:30;98174.45;;;3.10;87.23
62057;BME280;48016;50.284;18.860;2022-11-25T04:19:57;98173.44;;;3.12;87.14
62057;BME280;48016;50.284;18.860;2022-11-25T04:22:23;98172.69;;;3.13;87.30
62057;BME280;48016;50.284;18.860;2022-11-25T04:24:50;98170.22;;;3.14;87.45
62057;BME280;48016;50.284;18.860;2022-11-25T04:27:16;98170.73;;;3.18;87.34
62057;BME280;48016;50.284;18.860;2022-11-25T04:29:43;98174.86;;;3.22;87.49
62057;BME280;48016;50.284;18.860;2022-11-25T04:32:09;98175.39;;;3.26;87.30
62057;BME280;48016;50.284;18.860;2022-11-25T04:34:36;98173.58;;;3.26;87.13
62057;BME280;48016;50.284;18.860;2022-11-25T04:37:03;98171.77;;;3.26;87.22
62057;BME280;48016;50.284;18.860;2022-11-25T04:39:29;98172.42;;;3.28;87.14
62057;BME280;48016;50.284;18.860;2022-11-25T04:41:56;98172.96;;;3.28;87.18
62057;BME280;48016;50.284;18.860;2022-11-25T04:44:42;98176.54;;;3.27;87.24
62057;BME280;48016;50.284;18.860;2022-11-25T04:47:09;98176.37;;;3.29;87.40
62057;BME280;48016;50.284;18.860;2022-11-25T04:49:35;98176.98;;;3.31;87.20
62057;BME280;48016;50.284;18.860;2022-11-25T04:52:02;98180.80;;;3.32;87.09
62057;BME280;48016;50.284;18.860;2022-11-25T04:54:28;98180.84;;;3.33;87.13
62057;BME280;48016;50.284;18.860;2022-11-25T04:56:55;98183.75;;;3.32;87.09
62057;BME280;48016;50.284;18.860;2022-11-25T04:59:21;98183.02;;;3.31;87.03
62057;BME280;48016;50.284;18.860;2022-11-25T05:02:12;98185.64;;;3.32;87.25
62057;BME280;48016;50.284;18.860;2022-11-25T05:04:41;98187.29;;;3.32;87.12
62057;BME280;48016;50.284;18.860;2022-11-25T05:07:09;98189.83;;;3.35;87.24
62057;BME280;48016;50.284;18.860;2022-11-25T05:09:36;98194.88;;;3.38;87.13
62057;BME280;48016;50.284;18.860;2022-11-25T05:12:04;98203.54;;;3.41;87.15
62057;BME280;48016;50.284;18.860;2022-11-25T05:14:31;98208.98;;;3.44;86.89
62057;BME280;48016;50.284;18.860;2022-11-25T05:16:58;98211.27;;;3.45;86.91
62057;BME280;48016;50.284;18.860;2022-11-25T05:19:24;98218.33;;;3.46;86.94
62057;BME280;48016;50.284;18.860;2022-11-25T05:21:51;98219.77;;;3.48;86.79
62057;BME280;48016;50.284;18.860;2022-11-25T05:24:17;98221.48;;;3.48;86.84
62057;BME280;48016;50.284;18.860;2022-11-25T05:26:44;98220.96;;;3.47;86.65
62057;BME280;48016;50.284;18.860;2022-11-25T05:29:10;98221.98;;;3.43;86.67
62057;BME280;48016;50.284;18.860;2022-11-25T05:31:37;98218.33;;;3.41;87.00
62057;BME280;48016;50.284;18.860;2022-11-25T05:34:04;98220.35;;;3.44;86.93
62057;BME280;48016;50.284;18.860;2022-11-25T05:36:31;98219.36;;;3.47;86.87
62057;BME280;48016;50.284;18.860;2022-11-25T05:38:58;98218.92;;;3.50;86.83
62057;BME280;48016;50.284;18.860;2022-11-25T05:41:25;98221.44;;;3.51;86.78
62057;BME280;48016;50.284;18.860;2022-11-25T05:43:52;98221.48;;;3.51;86.65
62057;BME280;48016;50.284;18.860;2022-11-25T05:46:19;98224.64;;;3.51;86.55
62057;BME280;48016;50.284;18.860;2022-11-25T05:48:46;98230.61;;;3.50;86.57
62057;BME280;48016;50.284;18.860;2022-11-25T05:51:12;98229.33;;;3.49;86.58
62057;BME280;48016;50.284;18.860;2022-11-25T05:53:39;98232.67;;;3.49;86.48
62057;BME280;48016;50.284;18.860;2022-11-25T05:56:06;98238.10;;;3.48;86.51
62057;BME280;48016;50.284;18.860;2022-11-25T05:58:33;98235.55;;;3.47;86.59
62057;BME280;48016;50.284;18.860;2022-11-25T06:00:59;98233.17;;;3.46;86.56
62057;BME280;48016;50.284;18.860;2022-11-25T06:03:27;98237.49;;;3.47;86.78
62057;BME280;48016;50.284;18.860;2022-11-25T06:05:55;98238.71;;;3.50;86.89
62057;BME280;48016;50.284;18.860;2022-11-25T06:08:22;98237.84;;;3.52;86.79
62057;BME280;48016;50.284;18.860;2022-11-25T06:10:49;98241.45;;;3.54;86.58
62057;BME280;48016;50.284;18.860;2022-11-25T06:13:16;98242.77;;;3.54;86.56
62057;BME280;48016;50.284;18.860;2022-11-25T06:15:43;98246.89;;;3.51;86.54
62057;BME280;48016;50.284;18.860;2022-11-25T06:18:11;98247.55;;;3.49;86.74
62057;BME280;48016;50.284;18.860;2022-11-25T06:20:38;98249.17;;;3.48;86.73
62057;BME280;48016;50.284;18.860;2022-11-25T06:23:05;98251.38;;;3.46;86.73
62057;BME280;48016;50.284;18.860;2022-11-25T06:25:32;98254.45;;;3.47;86.97
62057;BME280;48016;50.284;18.860;2022-11-25T06:27:59;98252.65;;;3.50;87.27
62057;BME280;48016;50.284;18.860;2022-11-25T06:30:26;98255.23;;;3.55;87.20
62057;BME280;48016;50.284;18.860;2022-11-25T06:32:53;98253.64;;;3.60;87.06
62057;BME280;48016;50.284;18.860;2022-11-25T06:35:20;98253.42;;;3.63;87.08
62057;BME280;48016;50.284;18.860;2022-11-25T06:37:47;98254.90;;;3.64;87.00
62057;BME280;48016;50.284;18.860;2022-11-25T06:40:13;98254.85;;;3.67;87.14
62057;BME280;48016;50.284;18.860;2022-11-25T06:42:40;98254.43;;;3.69;87.11
62057;BME280;48016;50.284;18.860;2022-11-25T06:45:09;98254.83;;;3.74;87.28
62057;BME280;48016;50.284;18.860;2022-11-25T06:47:36;98253.48;;;3.78;87.07
62057;BME280;48016;50.284;18.860;2022-11-25T06:50:02;98258.21;;;3.80;86.87
62057;BME280;48016;50.284;18.860;2022-11-25T06:52:30;98261.13;;;3.82;86.94
62057;BME280;48016;50.284;18.860;2022-11-25T06:54:57;98263.73;;;3.87;86.91
62057;BME280;48016;50.284;18.860;2022-11-25T06:57:23;98265.07;;;3.93;87.00
62057;BME280;48016;50.284;18.860;2022-11-25T06:59:50;98269.19;;;4.01;86.87
62057;BME280;48016;50.284;18.860;2022-11-25T07:02:16;98269.73;;;4.05;86.78
62057;BME280;48016;50.284;18.860;2022-11-25T07:04:43;98272.58;;;4.06;86.69
62057;BME280;48016;50.284;18.860;2022-11-25T07:07:10;98273.73;;;4.07;86.64
62057;BME280;48016;50.284;18.860;2022-11-25T07:09:36;98271.00;;;4.07;86.58
62057;BME280;48016;50.284;18.860;2022-11-25T07:12:04;98272.84;;;4.10;86.65
62057;BME280;48016;50.284;18.860;2022-11-25T07:14:31;98277.32;;;4.12;86.60
62057;BME280;48016;50.284;18.860;2022-11-25T07:16:58;98277.05;;;4.14;86.45
62057;BME280;48016;50.284;18.860;2022-11-25T07:19:24;98277.77;;;4.14;86.44
62057;BME280;48016;50.284;18.860;2022-11-25T07:21:51;98282.63;;;4.14;86.57
62057;BME280;48016;50.284;18.860;2022-11-25T07:24:18;98285.41;;;4.17;86.72
62057;BME280;48016;50.284;18.860;2022-11-25T07:26:44;98291.77;;;4.20;86.56
62057;BME280;48016;50.284;18.860;2022-11-25T07:29:13;98293.89;;;4.24;86.75
62057;BME280;48016;50.284;18.860;2022-11-25T07:31:42;98294.16;;;4.27;86.56
62057;BME280;48016;50.284;18.860;2022-11-25T07:34:15;98293.52;;;4.30;86.58
62057;BME280;48016;50.284;18.860;2022-11-25T07:36:46;98295.52;;;4.35;86.65
62057;BME280;48016;50.284;18.860;2022-11-25T07:39:17;98296.92;;;4.42;86.64
62057;BME280;48016;50.284;18.860;2022-11-25T07:41:44;98300.34;;;4.48;86.61
62057;BME280;48016;50.284;18.860;2022-11-25T07:44:13;98301.92;;;4.52;86.58
62057;BME280;48016;50.284;18.860;2022-11-25T07:46:41;98307.01;;;4.55;86.49
62057;BME280;48016;50.284;18.860;2022-11-25T07:49:11;98302.42;;;4.56;86.40
62057;BME280;48016;50.284;18.860;2022-11-25T07:51:40;98303.69;;;4.52;86.18
62057;BME280;48016;50.284;18.860;2022-11-25T07:54:09;98305.85;;;4.49;86.28
62057;BME280;48016;50.284;18.860;2022-11-25T07:56:38;98305.83;;;4.46;86.18
62057;BME280;48016;50.284;18.860;2022-11-25T07:59:11;98304.42;;;4.47;86.22
62057;BME280;48016;50.284;18.860;2022-11-25T08:01:39;98301.08;;;4.49;86.30
62057;BME280;48016;50.284;18.860;2022-11-25T08:04:07;98304.55;;;4.52;86.26
62057;BME280;48016;50.284;18.860;2022-11-25T08:06:37;98308.61;;;4.55;86.30
62057;BME280;48016;50.284;18.860;2022-11-25T08:09:05;98312.35;;;4.58;86.29
62057;BME280;48016;50.284;18.860;2022-11-25T08:11:32;98315.38;;;4.61;86.48
62057;BME280;48016;50.284;18.860;2022-11-25T08:13:58;98316.93;;;4.63;86.54
62057;BME280;48016;50.284;18.860;2022-11-25T08:16:27;98313.37;;;4.66;86.39
62057;BME280;48016;50.284;18.860;2022-11-25T08:18:55;98315.41;;;4.67;86.20
62057;BME280;48016;50.284;18.860;2022-11-25T08:21:22;98311.55;;;4.66;85.94
62057;BME280;48016;50.284;18.860;2022-11-25T08:23:49;98316.76;;;4.63;86.16
62057;BME280;48016;50.284;18.860;2022-11-25T08:26:26;98320.52;;;4.65;86.22
62057;BME280;48016;50.284;18.860;2022-11-25T08:28:56;98323.66;;;4.69;86.26
62057;BME280;48016;50.284;18.860;2022-11-25T08:31:25;98325.20;;;4.72;86.16
62057;BME280;48016;50.284;18.860;2022-11-25T08:33:53;98322.67;;;4.74;86.27
62057;BME280;48016;50.284;18.860;2022-11-25T08:36:20;98324.59;;;4.80;86.18
62057;BME280;48016;50.284;18.860;2022-11-25T08:38:49;98325.83;;;4.86;86.25
62057;BME280;48016;50.284;18.860;2022-11-25T08:41:22;98322.85;;;4.93;86.13
62057;BME280;48016;50.284;18.860;2022-11-25T08:43:49;98327.17;;;4.99;85.96
62057;BME280;48016;50.284;18.860;2022-11-25T08:46:19;98335.51;;;5.05;85.93
62057;BME280;48016;50.284;18.860;2022-11-25T08:48:46;98337.02;;;5.07;85.94
62057;BME280;48016;50.284;18.860;2022-11-25T08:51:18;98335.46;;;5.05;85.82
62057;BME280;48016;50.284;18.860;2022-11-25T08:53:46;98336.46;;;5.05;85.88
62057;BME280;48016;50.284;18.860;2022-11-25T08:56:13;98339.63;;;5.10;85.89
62057;BME280;48016;50.284;18.860;2022-11-25T08:58:40;98341.33;;;5.18;85.90
62057;BME280;48016;50.284;18.860;2022-11-25T09:01:08;98337.77;;;5.25;85.98
62057;BME280;48016;50.284;18.860;2022-11-25T09:03:42;98339.32;;;5.32;86.01
62057;BME280;48016;50.284;18.860;2022-11-25T09:06:10;98340.95;;;5.38;85.92
62057;BME280;48016;50.284;18.860;2022-11-25T09:08:38;98344.07;;;5.43;85.72
62057;BME280;48016;50.284;18.860;2022-11-25T09:11:06;98342.64;;;5.51;85.57
62057;BME280;48016;50.284;18.860;2022-11-25T09:13:33;98342.17;;;5.58;85.42
62057;BME280;48016;50.284;18.860;2022-11-25T09:16:00;98342.62;;;5.66;85.16
62057;BME280;48016;50.284;18.860;2022-11-25T09:18:28;98341.74;;;5.78;85.11
62057;BME280;48016;50.284;18.860;2022-11-25T09:20:56;98346.47;;;5.89;85.09
62057;BME280;48016;50.284;18.860;2022-11-25T09:23:24;98344.07;;;6.00;85.18
62057;BME280;48016;50.284;18.860;2022-11-25T09:25:54;98341.88;;;6.07;85.08
62057;BME280;48016;50.284;18.860;2022-11-25T09:28:22;98334.19;;;6.08;84.71
62057;BME280;48016;50.284;18.860;2022-11-25T09:30:49;98337.80;;;6.09;84.47
62057;BME280;48016;50.284;18.860;2022-11-25T09:33:16;98338.70;;;6.10;84.58
62057;BME280;48016;50.284;18.860;2022-11-25T09:35:43;98341.36;;;6.08;84.13
62057;BME280;48016;50.284;18.860;2022-11-25T09:38:09;98344.52;;;6.06;84.45
62057;BME280;48016;50.284;18.860;2022-11-25T09:40:50;98346.85;;;6.12;84.63
62057;BME280;48016;50.284;18.860;2022-11-25T09:46:53;98343.94;;;6.16;84.22
62057;BME280;48016;50.284;18.860;2022-11-25T09:52:20;98338.11;;;6.22;84.36
62057;BME280;48016;50.284;18.860;2022-11-25T09:57:23;98339.48;;;6.17;83.74
62057;BME280;48016;50.284;18.860;2022-11-25T10:00:08;98339.22;;;6.14;83.83
62057;BME280;48016;50.284;18.860;2022-11-25T10:05:57;98344.02;;;6.11;83.86
62057;BME280;48016;50.284;18.860;2022-11-25T10:08:40;98340.59;;;6.13;83.78
62057;BME280;48016;50.284;18.860;2022-11-25T10:16:48;98338.77;;;6.30;83.83
62057;BME280;48016;50.284;18.860;2022-11-25T10:21:55;98343.95;;;6.36;83.76
62057;BME280;48016;50.284;18.860;2022-11-25T10:24:22;98343.88;;;6.39;83.61
62057;BME280;48016;50.284;18.860;2022-11-25T10:27:00;98342.81;;;6.41;83.49
62057;BME280;48016;50.284;18.860;2022-11-25T10:29:31;98346.12;;;6.44;83.42
62057;BME280;48016;50.284;18.860;2022-11-25T10:32:22;98345.98;;;6.55;83.50
62057;BME280;48016;50.284;18.860;2022-11-25T10:34:56;98346.17;;;6.72;83.22
62057;BME280;48016;50.284;18.860;2022-11-25T10:37:35;98343.46;;;6.80;82.92
62057;BME280;48016;50.284;18.860;2022-11-25T10:40:05;98343.70;;;6.83;83.12
62057;BME280;48016;50.284;18.860;2022-11-25T10:42:32;98343.41;;;6.86;82.92
62057;BME280;48016;50.284;18.860;2022-11-25T10:44:58;98341.73;;;6.90;82.79
62057;BME280;48016;50.284;18.860;2022-11-25T10:53:16;98344.92;;;6.93;81.87
62057;BME280;48016;50.284;18.860;2022-11-25T10:56:01;98337.98;;;6.90;81.92
62057;BME280;48016;50.284;18.860;2022-11-25T10:58:34;98340.17;;;6.90;82.15
62057;BME280;48016;50.284;18.860;2022-11-25T11:01:20;98343.75;;;6.95;82.09
62057;BME280;48016;50.284;18.860;2022-11-25T11:03:54;98342.59;;;6.96;82.01
62057;BME280;48016;50.284;18.860;2022-11-25T11:06:39;98344.17;;;7.04;82.23
62057;BME280;48016;50.284;18.860;2022-11-25T11:09:36;98341.46;;;7.09;81.88
62057;BME280;48016;50.284;18.860;2022-11-25T11:14:50;98352.23;;;7.07;81.80
62057;BME280;48016;50.284;18.860;2022-11-25T11:17:34;98348.43;;;7.12;81.69
62057;BME280;48016;50.284;18.860;2022-11-25T11:20:13;98348.05;;;7.17;81.53
62057;BME280;48016;50.284;18.860;2022-11-25T11:22:49;98354.45;;;7.19;81.65
62057;BME280;48016;50.284;18.860;2022-11-25T11:27:46;98348.45;;;7.24;81.76
62057;BME280;48016;50.284;18.860;2022-11-25T11:30:14;98345.90;;;7.26;81.66
62057;BME280;48016;50.284;18.860;2022-11-25T11:32:54;98344.55;;;7.31;81.48
62057;BME280;48016;50.284;18.860;2022-11-25T11:37:52;98349.48;;;7.29;81.16
62057;BME280;48016;50.284;18.860;2022-11-25T11:40:38;98345.91;;;7.31;81.10
62057;BME280;48016;50.284;18.860;2022-11-25T11:48:37;98349.90;;;7.29;81.37
62057;BME280;48016;50.284;18.860;2022-11-25T11:53:59;98348.83;;;7.36;81.34
62057;BME280;48016;50.284;18.860;2022-11-25T11:56:50;98353.70;;;7.39;81.25
62057;BME280;48016;50.284;18.860;2022-11-25T11:59:48;98350.80;;;7.39;81.23
62057;BME280;48016;50.284;18.860;2022-11-25T12:02:58;98353.02;;;7.38;80.97
62057;BME280;48016;50.284;18.860;2022-11-25T12:05:32;98349.09;;;7.36;80.80
62057;BME280;48016;50.284;18.860;2022-11-25T12:08:17;98352.38;;;7.37;80.92
62057;BME280;48016;50.284;18.860;2022-11-25T12:11:08;98352.73;;;7.41;81.05
62057;BME280;48016;50.284;18.860;2022-11-25T12:13:44;98351.38;;;7.46;81.19
62057;BME280;48016;50.284;18.860;2022-11-25T12:16:33;98346.92;;;7.51;81.31
62057;BME280;48016;50.284;18.860;2022-11-25T12:19:19;98350.99;;;7.52;80.84
62057;BME280;48016;50.284;18.860;2022-11-25T12:22:28;98352.74;;;7.54;80.97
62057;BME280;48016;50.284;18.860;2022-11-25T12:25:00;98351.90;;;7.57;80.87
62057;BME280;48016;50.284;18.860;2022-11-25T12:27:34;98355.14;;;7.57;80.68
62057;BME280;48016;50.284;18.860;2022-11-25T12:30:10;98354.13;;;7.55;80.78
62057;BME280;48016;50.284;18.860;2022-11-25T12:32:50;98360.45;;;7.54;80.73
62057;BME280;48016;50.284;18.860;2022-11-25T12:41:04;98364.18;;;7.48;81.06
62057;BME280;48016;50.284;18.860;2022-11-25T12:46:40;98357.02;;;7.48;81.14
62057;BME280;48016;50.284;18.860;2022-11-25T12:49:21;98359.36;;;7.44;81.02
62057;BME280;48016;50.284;18.860;2022-11-25T12:52:05;98355.77;;;7.42;81.02
62057;BME280;48016;50.284;18.860;2022-11-25T13:00:19;98354.94;;;7.42;81.16
62057;BME280;48016;50.284;18.860;2022-11-25T13:12:02;98368.36;;;7.36;81.10
62057;BME280;48016;50.284;18.860;2022-11-25T13:17:16;98368.12;;;7.28;81.17
62057;BME280;48016;50.284;18.860;2022-11-25T13:19:43;98371.46;;;7.26;81.24
62057;BME280;48016;50.284;18.860;2022-11-25T13:24:46;98375.50;;;7.22;81.43
62057;BME280;48016;50.284;18.860;2022-11-25T13:35:35;98376.64;;;7.14;81.71
62057;BME280;48016;50.284;18.860;2022-11-25T13:38:06;98379.11;;;7.16;81.65
62057;BME280;48016;50.284;18.860;2022-11-25T13:40:36;98376.42;;;7.16;81.67
62057;BME280;48016;50.284;18.860;2022-11-25T13:43:17;98380.30;;;7.14;81.66
62057;BME280;48016;50.284;18.860;2022-11-25T13:45:45;98379.61;;;7.08;81.79
62057;BME280;48016;50.284;18.860;2022-11-25T13:48:21;98382.46;;;7.04;81.89
62057;BME280;48016;50.284;18.860;2022-11-25T13:50:50;98386.19;;;7.02;81.97
62057;BME280;48016;50.284;18.860;2022-11-25T13:53:21;98384.31;;;7.00;81.87
62057;BME280;48016;50.284;18.860;2022-11-25T13:55:50;98381.42;;;6.99;81.89
62057;BME280;48016;50.284;18.860;2022-11-25T13:58:23;98381.20;;;6.98;81.95
62057;BME280;48016;50.284;18.860;2022-11-25T14:01:09;98382.38;;;6.96;81.93
62057;BME280;48016;50.284;18.860;2022-11-25T14:03:48;98385.23;;;6.94;81.99
62057;BME280;48016;50.284;18.860;2022-11-25T14:09:09;98384.23;;;6.91;81.89
62057;BME280;48016;50.284;18.860;2022-11-25T14:20:12;98388.93;;;6.77;82.33
62057;BME280;48016;50.284;18.860;2022-11-25T14:25:45;98391.64;;;6.76;82.19
62057;BME280;48016;50.284;18.860;2022-11-25T14:28:23;98389.33;;;6.72;82.42
62057;BME280;48016;50.284;18.860;2022-11-25T14:30:54;98391.67;;;6.71;82.43
62057;BME280;48016;50.284;18.860;2022-11-25T14:33:35;98393.36;;;6.68;82.36
62057;BME280;48016;50.284;18.860;2022-11-25T14:36:11;98393.03;;;6.65;82.44
62057;BME280;48016;50.284;18.860;2022-11-25T14:38:47;98392.54;;;6.62;82.64
62057;BME280;48016;50.284;18.860;2022-11-25T14:41:23;98395.69;;;6.59;82.68
62057;BME280;48016;50.284;18.860;2022-11-25T14:43:57;98398.41;;;6.57;82.70
62057;BME280;48016;50.284;18.860;2022-11-25T14:46:25;98397.78;;;6.55;82.68
62057;BME280;48016;50.284;18.860;2022-11-25T14:48:54;98402.09;;;6.51;82.65
62057;BME280;48016;50.284;18.860;2022-11-25T14:51:23;98399.91;;;6.47;82.78
62057;BME280;48016;50.284;18.860;2022-11-25T14:53:51;98404.31;;;6.45;82.86
62057;BME280;48016;50.284;18.860;2022-11-25T14:56:27;98403.80;;;6.44;82.83
62057;BME280;48016;50.284;18.860;2022-11-25T14:58:56;98404.05;;;6.41;82.94